Time;durP1;ratioP1;P1;durP2;ratioP2;P2;SDS_P1;SDS_P2;PMS_P1;PMS_P2;Temp;Humidity;BMP_temperature;BMP_pressure;BME280_temperature;BME280_humidity;BME280_pressure;Samples;Min_cycle;Max_cycle;Signal;HPM_P1;HPM_P2
2024/01/25 00:01:12;;;;;;;23.15;5.18;;;6.70;99.90;;;;;;5032851;28;20034;-67
2024/01/25 00:03:37;;;;;;;27.90;4.55;;;6.70;99.90;;;;;;5053317;28;20119;-68
2024/01/25 00:06:07;;;;;;;34.55;5.03;;;6.70;99.90;;;;;;5045630;28;20444;-67
2024/01/25 00:08:34;;;;;;;20.08;4.55;;;6.70;99.90;;;;;;5049059;28;20056;-67
2024/01/25 00:11:01;;;;;;;21.42;4.03;;;6.70;99.90;;;;;;5054388;28;20103;-67
2024/01/25 00:13:27;;;;;;;28.73;4.90;;;6.70;99.90;;;;;;5040841;28;20038;-67
2024/01/25 00:15:52;;;;;;;32.35;5.53;;;6.70;99.90;;;;;;5033983;28;20036;-67
2024/01/25 00:18:18;;;;;;;33.42;5.07;;;6.70;99.90;;;;;;5035003;28;20068;-66
2024/01/25 00:20:43;;;;;;;27.80;4.72;;;6.60;99.90;;;;;;5048156;28;20483;-66
2024/01/25 00:23:09;;;;;;;19.00;3.85;;;6.60;99.90;;;;;;5034249;28;20037;-67
2024/01/25 00:25:35;;;;;;;30.05;4.65;;;6.60;99.90;;;;;;5033548;28;20102;-66
2024/01/25 00:28:00;;;;;;;33.10;4.50;;;6.60;99.90;;;;;;5038915;28;20037;-67
2024/01/25 00:30:26;;;;;;;28.45;4.85;;;6.60;99.90;;;;;;5030149;28;20615;-67
2024/01/25 00:32:52;;;;;;;26.02;3.97;;;6.60;99.90;;;;;;5030564;28;20049;-67
2024/01/25 00:35:17;;;;;;;33.42;4.85;;;6.50;99.90;;;;;;5029761;28;20044;-67
2024/01/25 00:37:43;;;;;;;28.17;4.38;;;6.50;99.90;;;;;;5030916;28;20417;-67
2024/01/25 00:40:10;;;;;;;25.10;4.55;;;6.50;99.90;;;;;;5030954;28;20030;-68
2024/01/25 00:42:45;;;;;;;29.20;5.82;;;6.50;99.90;;;;;;5033177;28;20420;-68
2024/01/25 00:45:11;;;;;;;22.45;4.20;;;6.40;99.90;;;;;;5046975;28;20428;-68
2024/01/25 00:47:37;;;;;;;28.63;3.75;;;6.30;99.90;;;;;;5030760;28;20084;-67
2024/01/25 00:50:04;;;;;;;25.02;4.05;;;6.30;99.90;;;;;;5045502;28;20483;-67
2024/01/25 00:52:30;;;;;;;26.08;3.83;;;6.30;99.90;;;;;;5050926;28;20142;-67
2024/01/25 00:54:56;;;;;;;32.30;4.15;;;6.30;99.90;;;;;;5042294;28;20128;-67
2024/01/25 00:57:22;;;;;;;25.42;3.60;;;6.30;99.90;;;;;;5050127;28;20044;-67
2024/01/25 00:59:48;;;;;;;28.48;4.60;;;6.30;99.90;;;;;;5044918;28;20037;-67
2024/01/25 01:02:13;;;;;;;21.70;3.60;;;6.30;99.90;;;;;;5028460;28;20852;-66
2024/01/25 01:04:40;;;;;;;19.10;3.95;;;6.20;99.90;;;;;;5031730;28;20049;-67
2024/01/25 01:07:07;;;;;;;23.92;4.30;;;6.30;99.90;;;;;;5037214;28;20450;-68
2024/01/25 01:09:33;;;;;;;27.33;4.70;;;6.20;99.90;;;;;;5049470;28;20101;-66
2024/01/25 01:11:59;;;;;;;24.33;4.22;;;6.20;99.90;;;;;;5037539;28;20425;-67
2024/01/25 01:14:24;;;;;;;24.77;4.32;;;6.20;99.90;;;;;;5034093;28;20175;-68
2024/01/25 01:16:53;;;;;;;26.35;4.00;;;6.10;99.90;;;;;;5042861;28;20041;-67
2024/01/25 01:19:18;;;;;;;26.33;5.30;;;6.10;99.90;;;;;;5032251;28;20044;-68
2024/01/25 01:21:44;;;;;;;24.33;4.45;;;6.00;99.90;;;;;;5038407;28;20037;-67
2024/01/25 01:24:11;;;;;;;27.10;4.78;;;6.00;99.90;;;;;;5038432;28;20041;-67
2024/01/25 01:26:37;;;;;;;22.88;4.68;;;6.00;99.90;;;;;;5031190;28;20531;-67
2024/01/25 01:29:02;;;;;;;30.83;4.38;;;6.00;99.90;;;;;;5035097;28;20072;-68
2024/01/25 01:31:28;;;;;;;31.17;4.82;;;5.90;99.90;;;;;;5028875;28;20069;-67
2024/01/25 01:33:54;;;;;;;24.05;4.93;;;6.00;99.90;;;;;;5033209;28;20469;-67
2024/01/25 01:36:20;;;;;;;23.80;4.60;;;6.00;99.90;;;;;;5045494;28;20037;-68
2024/01/25 01:38:46;;;;;;;27.25;4.55;;;5.90;99.90;;;;;;5041610;28;20120;-67
2024/01/25 01:41:12;;;;;;;29.63;4.72;;;5.90;99.90;;;;;;5030343;28;20156;-67
2024/01/25 01:43:38;;;;;;;25.27;4.95;;;5.90;99.90;;;;;;5036082;28;20437;-67
2024/01/25 01:46:17;;;;;;;28.17;4.20;;;5.80;99.90;;;;;;5030343;28;20049;-67
2024/01/25 01:48:43;;;;;;;30.65;4.85;;;5.80;99.90;;;;;;5030942;28;20501;-67
2024/01/25 01:51:09;;;;;;;37.95;4.82;;;5.70;99.90;;;;;;5029764;28;20045;-68
2024/01/25 01:53:35;;;;;;;21.95;4.50;;;5.70;99.90;;;;;;5037700;28;20060;-67
2024/01/25 01:56:01;;;;;;;23.75;4.00;;;5.70;99.90;;;;;;5047012;28;20075;-67
2024/01/25 01:58:28;;;;;;;29.60;4.30;;;5.70;99.90;;;;;;5038213;28;20524;-67
2024/01/25 02:00:55;;;;;;;23.80;4.15;;;5.70;99.90;;;;;;5028835;28;20050;-67
2024/01/25 02:03:21;;;;;;;28.40;4.55;;;5.60;99.90;;;;;;5029437;28;20056;-67
2024/01/25 02:05:47;;;;;;;32.65;4.70;;;5.60;99.90;;;;;;5018240;28;20440;-68
2024/01/25 02:08:13;;;;;;;28.23;4.88;;;5.60;99.90;;;;;;5031806;28;20041;-68
2024/01/25 02:10:38;;;;;;;29.50;4.88;;;5.60;99.90;;;;;;5042062;28;20047;-67
2024/01/25 02:13:04;;;;;;;25.52;5.13;;;5.60;99.90;;;;;;5047838;28;20061;-68
2024/01/25 02:15:30;;;;;;;34.15;4.63;;;5.50;99.90;;;;;;5027150;28;20339;-68
2024/01/25 02:17:56;;;;;;;26.48;5.07;;;5.60;99.90;;;;;;5045802;28;20069;-68
2024/01/25 02:20:22;;;;;;;22.30;4.45;;;5.60;99.90;;;;;;5031553;28;20046;-67
2024/01/25 02:22:47;;;;;;;24.42;4.50;;;5.60;99.90;;;;;;5031406;28;20044;-68
2024/01/25 02:25:13;;;;;;;24.48;4.30;;;5.60;99.90;;;;;;5025456;28;20041;-70
2024/01/25 02:27:39;;;;;;;28.45;5.07;;;5.60;99.90;;;;;;5026678;28;20084;-68
2024/01/25 02:30:06;;;;;;;35.70;5.15;;;5.50;99.90;;;;;;5026624;28;20076;-68
2024/01/25 02:32:32;;;;;;;25.77;4.57;;;5.50;99.90;;;;;;5035047;28;20413;-68
2024/01/25 02:34:58;;;;;;;27.98;5.00;;;5.50;99.90;;;;;;5017107;28;20045;-67
2024/01/25 02:37:23;;;;;;;28.95;4.90;;;5.50;99.90;;;;;;5030050;28;20042;-68
2024/01/25 02:39:49;;;;;;;43.80;5.65;;;5.60;99.90;;;;;;5036545;28;20033;-67
2024/01/25 02:42:16;;;;;;;34.60;5.22;;;5.60;99.90;;;;;;5018742;28;20045;-68
2024/01/25 02:44:42;;;;;;;32.80;6.25;;;5.50;99.90;;;;;;5034432;28;20046;-68
2024/01/25 02:47:08;;;;;;;32.05;5.05;;;5.50;99.90;;;;;;5032945;28;20101;-67
2024/01/25 02:49:33;;;;;;;32.10;5.10;;;5.50;99.90;;;;;;5034416;28;20478;-68
2024/01/25 02:51:59;;;;;;;29.05;4.70;;;5.40;99.90;;;;;;5038468;28;20045;-68
2024/01/25 02:54:25;;;;;;;37.33;5.30;;;5.40;99.90;;;;;;5032771;28;20044;-68
2024/01/25 02:56:50;;;;;;;27.42;4.88;;;5.30;99.90;;;;;;5040001;28;20037;-71
2024/01/25 02:59:16;;;;;;;30.20;5.43;;;5.40;99.90;;;;;;5040433;28;20462;-68
2024/01/25 03:01:42;;;;;;;28.52;5.60;;;5.40;99.90;;;;;;5043797;28;20532;-68
2024/01/25 03:04:08;;;;;;;32.90;5.22;;;5.30;99.90;;;;;;5031223;28;20045;-67
2024/01/25 03:06:34;;;;;;;26.45;4.53;;;5.30;99.90;;;;;;5032984;28;20037;-68
2024/01/25 03:08:59;;;;;;;37.63;5.53;;;5.20;99.90;;;;;;5042676;28;20123;-68
2024/01/25 03:11:25;;;;;;;24.98;3.58;;;5.20;99.90;;;;;;5046068;28;20040;-68
2024/01/25 03:13:51;;;;;;;30.65;4.65;;;5.20;99.90;;;;;;5044227;28;20076;-67
2024/01/25 03:16:16;;;;;;;32.35;5.07;;;5.20;99.90;;;;;;5043881;28;20466;-68
2024/01/25 03:18:42;;;;;;;31.30;5.40;;;5.10;99.90;;;;;;5037307;28;20049;-67
2024/01/25 03:21:07;;;;;;;31.33;5.45;;;5.20;99.90;;;;;;5050558;28;20071;-67
2024/01/25 03:23:33;;;;;;;36.45;4.93;;;5.20;99.90;;;;;;5039461;28;20557;-68
2024/01/25 03:26:01;;;;;;;29.20;4.43;;;5.10;99.90;;;;;;5029563;28;20437;-68
2024/01/25 03:28:26;;;;;;;34.25;5.05;;;5.10;99.90;;;;;;5037976;28;20044;-67
2024/01/25 03:30:52;;;;;;;34.95;6.07;;;5.10;99.90;;;;;;5043274;28;20061;-67
2024/01/25 03:33:18;;;;;;;31.90;5.65;;;5.10;99.90;;;;;;5040047;28;20429;-68
2024/01/25 03:35:43;;;;;;;34.53;4.90;;;5.10;99.90;;;;;;5036909;28;20501;-68
2024/01/25 03:38:09;;;;;;;25.92;5.03;;;5.10;99.90;;;;;;5041194;28;20128;-68
2024/01/25 03:40:34;;;;;;;30.23;5.40;;;5.00;99.90;;;;;;5041861;28;20454;-68
2024/01/25 03:43:00;;;;;;;39.15;5.75;;;5.00;99.90;;;;;;5038085;28;20166;-68
2024/01/25 03:45:26;;;;;;;32.42;5.30;;;5.00;99.90;;;;;;5034849;28;20135;-68
2024/01/25 03:47:51;;;;;;;31.77;5.65;;;5.00;99.90;;;;;;5050157;28;20760;-68
2024/01/25 03:50:17;;;;;;;26.45;5.20;;;5.00;99.90;;;;;;5037651;28;20122;-68
2024/01/25 03:52:42;;;;;;;33.40;5.57;;;5.00;99.90;;;;;;5043969;28;20041;-67
2024/01/25 03:55:08;;;;;;;25.27;5.50;;;5.00;99.90;;;;;;5050011;28;20154;-68
2024/01/25 03:57:34;;;;;;;37.85;5.65;;;5.00;99.90;;;;;;5043613;28;20038;-67
2024/01/25 03:59:59;;;;;;;38.72;5.47;;;5.00;99.90;;;;;;5037484;28;20030;-68
2024/01/25 04:02:25;;;;;;;29.42;5.47;;;5.00;99.90;;;;;;5038234;28;20173;-68
2024/01/25 04:04:50;;;;;;;32.80;5.20;;;5.00;99.90;;;;;;5059615;28;20047;-67
2024/01/25 04:07:16;;;;;;;30.40;4.70;;;5.00;99.90;;;;;;5055472;28;20554;-68
2024/01/25 04:09:42;;;;;;;30.15;5.55;;;5.00;99.90;;;;;;5031208;28;20049;-68
2024/01/25 04:12:07;;;;;;;28.95;4.65;;;5.00;99.90;;;;;;5032406;28;20041;-68
2024/01/25 04:14:33;;;;;;;39.83;5.78;;;4.90;99.90;;;;;;5035791;28;20544;-67
2024/01/25 04:16:59;;;;;;;30.33;5.10;;;4.90;99.90;;;;;;5031935;28;20119;-67
2024/01/25 04:19:24;;;;;;;32.00;4.38;;;4.90;99.90;;;;;;5032266;28;20029;-68
2024/01/25 04:21:50;;;;;;;31.42;5.05;;;4.90;99.90;;;;;;5032755;28;20057;-67
2024/01/25 04:24:15;;;;;;;25.48;4.47;;;4.80;99.90;;;;;;5029312;28;20596;-67
2024/01/25 04:26:41;;;;;;;33.70;6.00;;;4.90;99.90;;;;;;5035082;28;20053;-67
2024/01/25 04:29:07;;;;;;;32.90;5.35;;;4.90;99.90;;;;;;5032912;28;20087;-68
2024/01/25 04:31:32;;;;;;;37.22;6.07;;;4.90;99.90;;;;;;5028768;28;20200;-67
2024/01/25 04:33:58;;;;;;;37.58;5.13;;;4.90;99.90;;;;;;5037813;28;20411;-68
2024/01/25 04:36:23;;;;;;;32.47;6.38;;;4.90;99.90;;;;;;5035415;28;20125;-68
2024/01/25 04:38:49;;;;;;;32.42;5.03;;;4.90;99.90;;;;;;5040237;28;20045;-67
2024/01/25 04:41:15;;;;;;;36.08;5.93;;;4.90;99.90;;;;;;5040334;28;20029;-69
2024/01/25 04:43:40;;;;;;;30.17;4.85;;;4.90;99.90;;;;;;5040631;28;20130;-67
2024/01/25 04:46:07;;;;;;;32.03;5.38;;;4.90;99.90;;;;;;5048796;28;20405;-68
2024/01/25 04:48:32;;;;;;;30.08;4.82;;;4.90;99.90;;;;;;5033630;28;20045;-68
2024/01/25 04:50:58;;;;;;;33.28;6.68;;;4.80;99.90;;;;;;5045463;28;20051;-68
2024/01/25 04:53:24;;;;;;;30.52;4.93;;;4.80;99.90;;;;;;5050562;28;20124;-68
2024/01/25 04:55:50;;;;;;;30.23;4.80;;;4.80;99.90;;;;;;5032236;28;20124;-68
2024/01/25 04:58:16;;;;;;;27.95;4.63;;;4.80;99.90;;;;;;5038630;28;20478;-68
2024/01/25 05:00:41;;;;;;;41.63;5.85;;;4.80;99.90;;;;;;5030901;28;20116;-68
2024/01/25 05:03:07;;;;;;;32.42;5.60;;;4.70;99.90;;;;;;5043974;28;20039;-68
2024/01/25 05:05:32;;;;;;;31.33;5.38;;;4.70;99.90;;;;;;5030496;28;20049;-67
2024/01/25 05:07:58;;;;;;;27.48;4.80;;;4.70;99.90;;;;;;5034851;28;20485;-68
2024/01/25 05:10:25;;;;;;;30.90;5.35;;;4.70;99.90;;;;;;5035468;28;20061;-67
2024/01/25 05:12:51;;;;;;;36.85;6.20;;;4.70;99.90;;;;;;5048003;28;20147;-68
2024/01/25 05:15:16;;;;;;;35.85;5.10;;;4.70;99.90;;;;;;5042793;28;20465;-68
2024/01/25 05:17:42;;;;;;;29.33;4.65;;;4.70;99.90;;;;;;5046190;28;20033;-68
2024/01/25 05:20:08;;;;;;;35.67;5.70;;;4.70;99.90;;;;;;5047832;28;20037;-69
2024/01/25 05:22:40;;;;;;;32.05;4.97;;;4.70;99.90;;;;;;5045156;28;20090;-68
2024/01/25 05:25:06;;;;;;;26.27;4.78;;;4.70;99.90;;;;;;5038888;28;20091;-68
2024/01/25 05:27:31;;;;;;;24.15;5.05;;;4.70;99.90;;;;;;5043703;28;20079;-67
2024/01/25 05:29:58;;;;;;;33.88;6.65;;;4.70;99.90;;;;;;5042474;28;20084;-68
2024/01/25 05:32:23;;;;;;;29.05;4.25;;;4.60;99.90;;;;;;5046278;28;20500;-67
2024/01/25 05:34:49;;;;;;;22.60;4.50;;;4.60;99.90;;;;;;5038522;28;20073;-68
2024/01/25 05:37:15;;;;;;;39.47;5.03;;;4.60;99.90;;;;;;5041133;28;20060;-68
2024/01/25 05:39:40;;;;;;;28.42;4.72;;;4.50;99.90;;;;;;5047130;28;20450;-68
2024/01/25 05:42:06;;;;;;;31.40;4.38;;;4.50;99.90;;;;;;5039465;28;20028;-67
2024/01/25 05:44:32;;;;;;;36.42;5.22;;;4.40;99.90;;;;;;5035927;28;20056;-68
2024/01/25 05:46:57;;;;;;;30.25;5.68;;;4.40;99.90;;;;;;5031643;28;20057;-67
2024/01/25 05:49:23;;;;;;;39.63;5.32;;;4.30;99.90;;;;;;5064101;28;20121;-68
2024/01/25 05:51:48;;;;;;;29.98;5.80;;;4.30;99.90;;;;;;5041754;28;20059;-68
2024/01/25 05:54:14;;;;;;;33.35;5.13;;;4.30;99.90;;;;;;5036913;28;20037;-68
2024/01/25 05:56:39;;;;;;;34.58;4.85;;;4.30;99.90;;;;;;5040559;28;20539;-66
2024/01/25 05:59:05;;;;;;;40.05;6.13;;;4.30;99.90;;;;;;5029590;28;20038;-67
2024/01/25 06:01:31;;;;;;;31.63;4.53;;;4.40;99.90;;;;;;5048907;28;20033;-67
2024/01/25 06:03:56;;;;;;;26.80;4.60;;;4.30;99.90;;;;;;5044041;28;20515;-68
2024/01/25 06:06:22;;;;;;;32.90;5.13;;;4.30;99.90;;;;;;5012674;28;20041;-68
2024/01/25 06:08:47;;;;;;;34.05;5.45;;;4.30;99.90;;;;;;5037722;28;20037;-68
2024/01/25 06:11:13;;;;;;;29.77;4.97;;;4.30;99.90;;;;;;5050812;28;20069;-67
2024/01/25 06:13:39;;;;;;;40.85;5.25;;;4.20;99.90;;;;;;5029632;28;20041;-68
2024/01/25 06:16:05;;;;;;;32.78;5.65;;;4.20;99.90;;;;;;5031972;28;20041;-69
2024/01/25 06:18:30;;;;;;;36.88;4.93;;;4.30;99.90;;;;;;5023412;28;20037;-68
2024/01/25 06:20:56;;;;;;;31.75;6.07;;;4.20;99.90;;;;;;5030872;28;20037;-67
2024/01/25 06:23:22;;;;;;;42.80;6.38;;;4.20;99.90;;;;;;5037956;28;20842;-68
2024/01/25 06:25:47;;;;;;;44.80;5.88;;;4.20;99.90;;;;;;5028976;28;20098;-68
2024/01/25 06:28:13;;;;;;;30.40;4.78;;;4.30;99.90;;;;;;5032720;28;20033;-68
2024/01/25 06:30:38;;;;;;;38.00;5.65;;;4.20;99.90;;;;;;5029870;28;20041;-68
2024/01/25 06:33:04;;;;;;;38.45;6.10;;;4.20;99.90;;;;;;5061854;28;20073;-69
2024/01/25 06:35:31;;;;;;;38.72;5.65;;;4.10;99.90;;;;;;5018774;28;20120;-68
2024/01/25 06:37:57;;;;;;;35.28;5.57;;;4.10;99.90;;;;;;5042473;28;20047;-68
2024/01/25 06:40:22;;;;;;;27.52;6.40;;;4.10;99.90;;;;;;5033727;28;20033;-68
2024/01/25 06:42:48;;;;;;;35.95;5.32;;;4.10;99.90;;;;;;5033417;28;20117;-68
2024/01/25 06:45:14;;;;;;;37.42;6.15;;;4.10;99.90;;;;;;5031415;28;20596;-68
2024/01/25 06:47:39;;;;;;;48.90;8.38;;;4.10;99.90;;;;;;5041865;28;20087;-69
2024/01/25 06:50:05;;;;;;;31.40;5.47;;;4.20;99.90;;;;;;5036098;28;20087;-69
2024/01/25 06:52:32;;;;;;;35.17;5.50;;;4.20;99.90;;;;;;5053168;28;20072;-68
2024/01/25 06:54:58;;;;;;;23.05;4.68;;;4.20;99.90;;;;;;5050025;28;20047;-66
2024/01/25 06:57:24;;;;;;;32.67;6.50;;;4.10;99.90;;;;;;5041791;28;20033;-68
2024/01/25 06:59:49;;;;;;;33.97;5.65;;;4.10;99.90;;;;;;5047029;28;20029;-68
2024/01/25 07:02:15;;;;;;;33.55;5.40;;;4.10;99.90;;;;;;5054051;28;20037;-68
2024/01/25 07:04:40;;;;;;;30.85;5.32;;;4.10;99.90;;;;;;5058894;28;20556;-67
2024/01/25 07:07:06;;;;;;;38.95;6.47;;;4.00;99.90;;;;;;5061120;28;20048;-67
2024/01/25 07:09:32;;;;;;;47.20;6.47;;;4.10;99.90;;;;;;5050107;28;20461;-66
2024/01/25 07:11:58;;;;;;;22.58;5.32;;;4.10;99.90;;;;;;5048021;28;20056;-68
2024/01/25 07:14:23;;;;;;;25.05;5.45;;;4.10;99.90;;;;;;5040281;28;20445;-68
2024/01/25 07:16:49;;;;;;;35.33;5.60;;;4.10;99.90;;;;;;5050872;28;20466;-68
2024/01/25 07:19:14;;;;;;;31.08;6.22;;;4.00;99.90;;;;;;5049852;28;20029;-67
2024/01/25 07:21:40;;;;;;;32.88;5.55;;;4.00;99.90;;;;;;5049546;28;20425;-68
2024/01/25 07:24:06;;;;;;;32.45;5.70;;;4.00;99.90;;;;;;5051130;28;20060;-67
2024/01/25 07:26:32;;;;;;;34.33;5.80;;;3.90;99.90;;;;;;5053137;28;20076;-69
2024/01/25 07:29:00;;;;;;;34.95;4.82;;;3.90;99.90;;;;;;5055162;28;20037;-68
2024/01/25 07:31:27;;;;;;;29.90;4.78;;;3.90;99.90;;;;;;5042937;28;20052;-68
2024/01/25 07:33:53;;;;;;;32.53;6.32;;;4.00;99.90;;;;;;5038874;28;20049;-67
2024/01/25 07:36:19;;;;;;;37.78;5.82;;;4.00;99.90;;;;;;5032773;28;20454;-68
2024/01/25 07:38:48;;;;;;;35.53;4.78;;;4.00;99.90;;;;;;5032494;28;20034;-67
2024/01/25 07:41:15;;;;;;;41.95;5.55;;;4.00;99.90;;;;;;5047787;28;20140;-67
2024/01/25 07:43:41;;;;;;;28.55;5.45;;;4.00;99.90;;;;;;5034850;28;20037;-67
2024/01/25 07:46:07;;;;;;;32.33;5.93;;;4.00;99.90;;;;;;5046859;28;20059;-68
2024/01/25 07:48:33;;;;;;;29.70;5.00;;;4.00;99.90;;;;;;5031406;28;20033;-68
2024/01/25 07:50:59;;;;;;;36.22;5.55;;;4.00;99.90;;;;;;5043189;28;20377;-68
2024/01/25 07:53:24;;;;;;;29.27;5.53;;;4.00;99.90;;;;;;5038203;28;20480;-68
2024/01/25 07:55:50;;;;;;;37.95;6.82;;;4.00;99.90;;;;;;5031679;28;20282;-68
2024/01/25 07:58:16;;;;;;;34.80;5.88;;;4.00;99.90;;;;;;5033896;28;20079;-69
2024/01/25 08:00:45;;;;;;;29.92;5.47;;;4.10;99.90;;;;;;5033603;28;20036;-67
2024/01/25 08:03:11;;;;;;;31.77;5.47;;;4.10;99.90;;;;;;5026991;28;20033;-68
2024/01/25 08:05:37;;;;;;;41.05;5.50;;;4.20;99.90;;;;;;5045437;28;20033;-69
2024/01/25 08:08:03;;;;;;;39.72;5.97;;;4.20;99.90;;;;;;5042740;28;20373;-68
2024/01/25 08:10:28;;;;;;;38.78;7.05;;;4.20;99.90;;;;;;5019426;28;20100;-68
2024/01/25 08:12:54;;;;;;;38.05;6.97;;;4.30;99.90;;;;;;5050304;28;20136;-69
2024/01/25 08:15:20;;;;;;;33.88;5.95;;;4.30;99.90;;;;;;5050014;28;20045;-68
2024/01/25 08:17:45;;;;;;;37.13;5.88;;;4.30;99.90;;;;;;5038320;28;20038;-68
2024/01/25 08:20:13;;;;;;;24.50;4.93;;;4.30;99.90;;;;;;5049026;28;20041;-68
2024/01/25 08:22:40;;;;;;;41.22;6.05;;;4.40;99.90;;;;;;5030156;28;20792;-68
2024/01/25 08:25:06;;;;;;;32.00;6.47;;;4.40;99.90;;;;;;5031049;28;20370;-70
2024/01/25 08:27:32;;;;;;;36.35;5.32;;;4.50;99.90;;;;;;5037879;28;20045;-68
2024/01/25 08:29:57;;;;;;;31.63;6.30;;;4.50;99.90;;;;;;5048977;28;20060;-69
2024/01/25 08:32:23;;;;;;;35.92;6.20;;;4.60;99.90;;;;;;5038234;28;20049;-68
2024/01/25 08:34:49;;;;;;;37.17;6.07;;;4.60;99.90;;;;;;5037331;28;20389;-67
2024/01/25 08:37:14;;;;;;;38.30;5.70;;;4.70;99.90;;;;;;5033457;28;20041;-69
2024/01/25 08:39:40;;;;;;;34.50;6.35;;;4.70;99.90;;;;;;5031026;28;20037;-69
2024/01/25 08:42:06;;;;;;;34.65;5.70;;;4.80;99.90;;;;;;5031751;28;20037;-68
2024/01/25 08:44:32;;;;;;;29.80;6.75;;;4.80;99.90;;;;;;5012494;28;20042;-69
2024/01/25 08:46:58;;;;;;;42.42;6.10;;;4.80;99.90;;;;;;5038523;28;20060;-68
2024/01/25 08:49:23;;;;;;;35.67;7.50;;;4.90;99.90;;;;;;5031772;28;20061;-69
2024/01/25 08:51:50;;;;;;;37.97;7.10;;;4.90;99.90;;;;;;5035208;28;20402;-68
2024/01/25 08:54:15;;;;;;;34.30;6.03;;;5.00;99.90;;;;;;5036053;28;20159;-68
2024/01/25 08:56:41;;;;;;;38.78;5.40;;;5.00;99.90;;;;;;5040286;28;20107;-68
2024/01/25 08:59:07;;;;;;;34.42;6.40;;;5.00;99.90;;;;;;5033025;28;20414;-69
2024/01/25 09:01:32;;;;;;;34.45;7.03;;;5.00;99.90;;;;;;5035033;28;20438;-68
2024/01/25 09:04:02;;;;;;;38.80;6.28;;;5.00;99.90;;;;;;5045396;28;20045;-68
2024/01/25 09:06:29;;;;;;;33.67;5.63;;;5.10;99.90;;;;;;5050556;28;20044;-68
2024/01/25 09:08:55;;;;;;;38.30;5.47;;;5.10;99.90;;;;;;5050533;28;20049;-68
2024/01/25 09:11:21;;;;;;;37.72;5.63;;;5.10;99.90;;;;;;5050148;28;20043;-69
2024/01/25 09:13:47;;;;;;;39.88;5.70;;;5.10;99.90;;;;;;5049428;28;20481;-68
2024/01/25 09:16:13;;;;;;;38.13;5.38;;;5.20;99.90;;;;;;5020356;28;20033;-68
2024/01/25 09:18:39;;;;;;;30.48;5.35;;;5.20;99.90;;;;;;5030018;28;20164;-69
2024/01/25 09:21:05;;;;;;;36.17;5.97;;;5.30;99.90;;;;;;5016622;28;20127;-67
2024/01/25 09:23:30;;;;;;;32.38;6.60;;;5.30;99.90;;;;;;5030599;28;20048;-68
2024/01/25 09:25:56;;;;;;;31.98;6.32;;;5.40;99.90;;;;;;5036887;28;20045;-69
2024/01/25 09:28:22;;;;;;;30.48;5.88;;;5.50;99.90;;;;;;5043989;28;20702;-69
2024/01/25 09:30:48;;;;;;;36.60;7.60;;;5.50;99.90;;;;;;5029487;28;20501;-68
2024/01/25 09:33:14;;;;;;;31.45;5.47;;;5.60;99.90;;;;;;5027964;28;20041;-69
2024/01/25 09:35:41;;;;;;;32.40;6.18;;;5.60;99.90;;;;;;5032522;28;20109;-67
2024/01/25 09:38:07;;;;;;;36.00;6.28;;;5.70;99.90;;;;;;5037705;28;20126;-68
2024/01/25 09:40:33;;;;;;;41.55;6.68;;;5.70;99.90;;;;;;5030917;28;20041;-67
2024/01/25 09:42:59;;;;;;;34.22;7.03;;;5.70;99.90;;;;;;5034624;28;20066;-68
2024/01/25 09:45:25;;;;;;;39.90;7.82;;;5.80;99.90;;;;;;5028702;28;20048;-68
2024/01/25 09:47:51;;;;;;;31.90;6.93;;;5.80;99.90;;;;;;5030502;28;20095;-69
2024/01/25 09:50:16;;;;;;;32.55;6.55;;;5.80;99.90;;;;;;5032006;28;20041;-69
2024/01/25 09:52:54;;;;;;;37.88;6.60;;;5.90;99.90;;;;;;5045665;28;20054;-68
2024/01/25 09:55:24;;;;;;;27.40;6.75;;;5.90;99.90;;;;;;5028544;28;20442;-68
2024/01/25 09:57:54;;;;;;;29.20;5.80;;;5.90;99.90;;;;;;5030501;28;20045;-68
2024/01/25 10:00:20;;;;;;;38.83;5.85;;;6.00;99.90;;;;;;5035406;28;20097;-69
2024/01/25 10:02:50;;;;;;;30.45;5.47;;;6.00;99.90;;;;;;5041845;28;20143;-67
2024/01/25 10:05:19;;;;;;;30.90;5.75;;;6.00;99.90;;;;;;5047204;28;20397;-68
2024/01/25 10:07:46;;;;;;;33.13;6.03;;;6.00;99.90;;;;;;5033011;28;20044;-68
2024/01/25 10:10:13;;;;;;;27.75;5.88;;;6.00;99.90;;;;;;5040994;28;20654;-68
2024/01/25 10:12:40;;;;;;;30.70;6.15;;;6.00;99.90;;;;;;5044579;28;20091;-67
2024/01/25 10:15:07;;;;;;;36.75;5.63;;;5.90;99.90;;;;;;5045109;28;20041;-67
2024/01/25 10:17:33;;;;;;;37.65;5.72;;;6.00;99.90;;;;;;5012643;28;20095;-67
2024/01/25 10:19:59;;;;;;;28.88;5.55;;;6.00;99.90;;;;;;5029658;28;20073;-68
2024/01/25 10:22:25;;;;;;;37.95;5.97;;;5.90;99.90;;;;;;5031912;28;20061;-68
2024/01/25 10:24:50;;;;;;;30.95;6.50;;;6.00;99.90;;;;;;5030367;28;20156;-67
2024/01/25 10:27:17;;;;;;;37.83;6.53;;;5.90;99.90;;;;;;5038700;28;20080;-68
2024/01/25 10:29:42;;;;;;;34.30;6.07;;;5.90;99.90;;;;;;5046284;28;20404;-68
2024/01/25 10:32:09;;;;;;;37.08;6.68;;;5.90;99.90;;;;;;5039119;28;20047;-67
2024/01/25 10:34:36;;;;;;;36.17;6.40;;;5.90;99.90;;;;;;5032812;28;20075;-68
2024/01/25 10:37:07;;;;;;;31.30;5.43;;;5.90;99.90;;;;;;5040503;28;20029;-68
2024/01/25 10:39:33;;;;;;;39.13;7.47;;;6.00;99.90;;;;;;5020556;28;20029;-68
2024/01/25 10:42:00;;;;;;;33.35;7.18;;;6.00;99.90;;;;;;5037380;28;20033;-68
2024/01/25 10:44:26;;;;;;;33.38;6.93;;;6.10;99.90;;;;;;5041870;28;20043;-67
2024/01/25 10:46:54;;;;;;;28.58;5.90;;;6.20;99.90;;;;;;5038285;28;20133;-68
2024/01/25 10:49:20;;;;;;;26.20;6.35;;;6.30;99.90;;;;;;5019552;28;20036;-68
2024/01/25 10:51:46;;;;;;;39.10;6.88;;;6.30;99.90;;;;;;5059633;28;20075;-69
2024/01/25 10:54:14;;;;;;;42.40;6.22;;;6.50;99.90;;;;;;5031537;28;20113;-68
2024/01/25 10:56:41;;;;;;;32.97;6.15;;;6.50;99.90;;;;;;5042310;28;20064;-68
2024/01/25 10:59:08;;;;;;;26.85;6.72;;;6.70;99.90;;;;;;5041247;28;20394;-67
2024/01/25 11:01:34;;;;;;;31.13;6.72;;;6.70;99.90;;;;;;5017358;28;20119;-68
2024/01/25 11:04:00;;;;;;;43.65;7.40;;;6.90;99.90;;;;;;5034660;28;20075;-68
2024/01/25 11:06:27;;;;;;;34.45;6.47;;;7.00;99.90;;;;;;5034814;28;22094;-69
2024/01/25 11:09:05;;;;;;;30.60;6.55;;;7.00;99.90;;;;;;5040539;28;20111;-69
2024/01/25 11:11:31;;;;;;;34.20;7.50;;;6.90;99.90;;;;;;5048614;28;20052;-69
2024/01/25 11:13:58;;;;;;;38.17;6.78;;;6.90;99.90;;;;;;5047728;28;20132;-68
2024/01/25 11:16:34;;;;;;;32.33;6.95;;;6.90;99.90;;;;;;5031179;28;20038;-68
2024/01/25 11:19:05;;;;;;;36.35;6.18;;;6.80;99.90;;;;;;5028850;28;20069;-68
2024/01/25 11:21:50;;;;;;;38.20;6.93;;;6.80;99.90;;;;;;5032591;28;20045;-68
2024/01/25 11:24:20;;;;;;;30.73;6.82;;;6.80;99.90;;;;;;5019407;28;20049;-68
2024/01/25 11:26:46;;;;;;;37.65;7.10;;;6.90;99.90;;;;;;5047256;28;20350;-69
2024/01/25 11:29:16;;;;;;;35.83;6.50;;;7.00;99.90;;;;;;5046148;28;20045;-68
2024/01/25 11:31:45;;;;;;;30.13;6.20;;;7.20;99.90;;;;;;5051610;28;20059;-69
2024/01/25 11:34:12;;;;;;;27.70;6.10;;;7.40;99.90;;;;;;5047765;28;20033;-68
2024/01/25 11:36:38;;;;;;;29.70;5.63;;;7.50;99.90;;;;;;5049129;28;20480;-68
2024/01/25 11:39:06;;;;;;;34.28;6.22;;;7.60;99.90;;;;;;5050112;28;20040;-69
2024/01/25 11:41:32;;;;;;;25.27;5.63;;;7.70;99.90;;;;;;5049186;28;20033;-68
2024/01/25 11:43:57;;;;;;;32.83;5.40;;;7.80;99.90;;;;;;5051036;28;20037;-68
2024/01/25 11:46:24;;;;;;;24.27;5.25;;;7.70;99.90;;;;;;5050724;28;20049;-68
2024/01/25 11:48:50;;;;;;;37.60;6.00;;;7.80;99.90;;;;;;5052830;28;20382;-67
2024/01/25 11:51:16;;;;;;;22.25;5.20;;;7.80;99.90;;;;;;5049278;28;20055;-68
2024/01/25 11:53:41;;;;;;;28.83;4.60;;;7.80;99.90;;;;;;5035856;28;20403;-69
2024/01/25 11:56:10;;;;;;;31.83;5.45;;;7.80;99.90;;;;;;5049335;28;20033;-68
2024/01/25 11:58:37;;;;;;;33.72;5.18;;;7.80;99.90;;;;;;5048991;28;20079;-69
2024/01/25 12:01:07;;;;;;;23.90;5.10;;;7.90;99.90;;;;;;5048128;28;20076;-69
2024/01/25 12:03:35;;;;;;;28.13;5.32;;;7.90;99.90;;;;;;5050320;28;20029;-68
2024/01/25 12:06:01;;;;;;;25.70;5.22;;;7.80;99.90;;;;;;5034378;28;20040;-68
2024/01/25 12:08:27;;;;;;;29.98;5.93;;;7.90;99.90;;;;;;5052069;28;20447;-68
2024/01/25 12:11:03;;;;;;;22.70;4.75;;;7.90;99.90;;;;;;5049565;28;20037;-68
2024/01/25 12:13:41;;;;;;;34.63;6.43;;;7.90;99.90;;;;;;5043881;28;20033;-67
2024/01/25 12:16:08;;;;;;;24.27;4.72;;;7.90;99.90;;;;;;5051753;28;20119;-68
2024/01/25 12:18:35;;;;;;;27.92;5.57;;;7.90;99.90;;;;;;5052158;28;20033;-68
2024/01/25 12:21:03;;;;;;;36.88;6.88;;;7.80;99.90;;;;;;5049643;28;20338;-68
2024/01/25 12:23:36;;;;;;;33.35;5.40;;;7.80;99.90;;;;;;5049628;28;20167;-68
2024/01/25 12:26:04;;;;;;;25.48;6.60;;;7.90;99.90;;;;;;5052046;28;20037;-67
2024/01/25 12:28:31;;;;;;;36.25;6.15;;;7.90;99.90;;;;;;5050809;28;20127;-67
2024/01/25 12:30:57;;;;;;;26.85;4.80;;;7.90;99.90;;;;;;5050214;28;20581;-68
2024/01/25 12:33:22;;;;;;;27.35;5.00;;;7.90;99.90;;;;;;5043811;28;20140;-68
2024/01/25 12:35:48;;;;;;;23.27;5.57;;;8.00;99.90;;;;;;5051242;28;20152;-68
2024/01/25 12:38:14;;;;;;;22.42;4.82;;;8.10;99.90;;;;;;5052524;28;20037;-69
2024/01/25 12:40:42;;;;;;;27.05;5.72;;;8.10;99.90;;;;;;5049461;28;20041;-68
2024/01/25 12:43:08;;;;;;;26.77;5.20;;;8.10;99.90;;;;;;5049592;28;20037;-68